Time;durP1;ratioP1;P1;durP2;ratioP2;P2;SDS_P1;SDS_P2;PMS_P1;PMS_P2;Temp;Humidity;BMP_temperature;BMP_pressure;BME280_temperature;BME280_humidity;BME280_pressure;Samples;Min_cycle;Max_cycle;Signal;HPM_P1;HPM_P2
2021/01/12 00:00:32;;;;;;;;;;;;;;;-9.45;88.22;93122.62;1059001;56;20178;-81
2021/01/12 00:01:37;;;;;;;;;;;;;;;-9.42;87.99;93119.47;1059053;56;21112;-82
2021/01/12 00:02:38;;;;;;;;;;;;;;;-9.42;88.40;93118.69;1061194;56;20698;-81
2021/01/12 00:03:38;;;;;;;;;;;;;;;-9.52;88.38;93113.75;1061082;56;20173;-81
2021/01/12 00:04:39;;;;;;;;;;;;;;;-9.46;88.37;93112.56;1063249;55;20162;-82
2021/01/12 00:05:39;;;;;;;;;;;;;;;-9.45;88.40;93117.44;1065416;55;20162;-81
2021/01/12 00:06:41;;;;;;;;;;;;;;;-9.51;88.61;93116.03;1063251;55;20177;-81
2021/01/12 00:07:42;;;;;;;;;;;;;;;-9.44;88.47;93121.59;1061091;56;20189;-81
2021/01/12 00:08:42;;;;;;;;;;;;;;;-9.58;88.58;93120.81;1061067;56;20181;-80
2021/01/12 00:09:43;;;;;;;;;;;;;;;-9.61;88.92;93118.84;1063266;55;20188;-81
2021/01/12 00:10:43;;;;;;;;;;;;;;;-9.60;88.78;93122.19;1060970;56;20166;-81
2021/01/12 00:11:44;;;;;;;;;;;;;;;-9.57;89.00;93117.19;1059125;56;20186;-83
2021/01/12 00:12:44;;;;;;;;;;;;;;;-9.60;89.23;93109.25;1063154;55;20276;-81
2021/01/12 00:13:45;;;;;;;;;;;;;;;-9.56;88.87;93115.38;1060988;56;20210;-82
2021/01/12 00:14:45;;;;;;;;;;;;;;;-9.57;88.65;93112.00;1063143;55;20174;-81
2021/01/12 00:15:46;;;;;;;;;;;;;;;-9.63;88.85;93108.00;1063390;55;20213;-82
2021/01/12 00:16:46;;;;;;;;;;;;;;;-9.48;88.57;93106.91;1063194;55;20176;-82
2021/01/12 00:17:47;;;;;;;;;;;;;;;-9.55;88.86;93102.16;1061109;56;20154;-82
2021/01/12 00:18:48;;;;;;;;;;;;;;;-9.49;88.44;93106.16;1061062;56;20158;-82
2021/01/12 00:19:48;;;;;;;;;;;;;;;-9.56;88.37;93103.22;1061114;56;20170;-82
2021/01/12 00:20:48;;;;;;;;;;;;;;;-9.56;88.79;93103.22;1061155;56;20165;-81
2021/01/12 00:21:49;;;;;;;;;;;;;;;-9.58;88.58;93100.12;1061158;56;20162;-83
2021/01/12 00:22:49;;;;;;;;;;;;;;;-9.66;88.66;93106.78;1061044;55;20158;-82
2021/01/12 00:23:50;;;;;;;;;;;;;;;-9.60;89.14;93102.25;1063260;55;20251;-82
2021/01/12 00:24:51;;;;;;;;;;;;;;;-9.46;89.21;93104.81;1063165;55;20169;-82
2021/01/12 00:25:51;;;;;;;;;;;;;;;-9.52;89.00;93106.75;1063204;55;20707;-82
2021/01/12 00:26:52;;;;;;;;;;;;;;;-9.43;88.51;93109.41;1061059;56;20673;-83
2021/01/12 00:27:52;;;;;;;;;;;;;;;-9.48;88.33;93112.88;1061050;56;20166;-82
2021/01/12 00:28:53;;;;;;;;;;;;;;;-9.42;88.48;93114.28;1063427;55;20727;-82
2021/01/12 00:29:54;;;;;;;;;;;;;;;-9.47;88.18;93111.81;1060990;56;20197;-83
2021/01/12 00:30:54;;;;;;;;;;;;;;;-9.46;88.24;93113.34;1058905;56;20146;-82
2021/01/12 00:31:54;;;;;;;;;;;;;;;-9.41;88.42;93109.88;1063190;55;20215;-82
2021/01/12 00:32:55;;;;;;;;;;;;;;;-9.42;87.93;93110.94;1063165;55;20235;-82
2021/01/12 00:33:56;;;;;;;;;;;;;;;-9.48;88.06;93112.88;1061082;56;20178;-82
2021/01/12 00:34:57;;;;;;;;;;;;;;;-9.49;88.34;93107.97;1056882;56;20306;-82
2021/01/12 00:36:04;;;;;;;;;;;;;;;-9.54;88.56;93103.69;1059031;56;20264;-82
2021/01/12 00:37:05;;;;;;;;;;;;;;;-9.46;88.53;93095.22;1063443;55;20161;-81
2021/01/12 00:38:05;;;;;;;;;;;;;;;-9.47;88.09;93091.12;1063205;55;20647;-82
2021/01/12 00:39:06;;;;;;;;;;;;;;;-9.49;87.78;93090.63;1063223;55;20162;-81
2021/01/12 00:40:07;;;;;;;;;;;;;;;-9.51;88.13;93092.00;1063199;55;20193;-81
2021/01/12 00:41:07;;;;;;;;;;;;;;;-9.54;87.98;93095.91;1063337;55;20177;-82
2021/01/12 00:42:08;;;;;;;;;;;;;;;-9.50;88.04;93086.53;1065835;55;20185;-81
2021/01/12 00:43:08;;;;;;;;;;;;;;;-9.57;87.78;93090.56;1060999;56;20157;-83
2021/01/12 00:44:11;;;;;;;;;;;;;;;-9.56;88.61;93084.34;1061260;55;20189;-82
2021/01/12 00:45:12;;;;;;;;;;;;;;;-9.50;88.83;93080.59;1063160;55;20157;-81
2021/01/12 00:46:13;;;;;;;;;;;;;;;-9.44;88.22;93082.00;1063137;55;20186;-81
2021/01/12 00:47:14;;;;;;;;;;;;;;;-9.55;88.17;93091.03;1063109;55;20217;-82
2021/01/12 00:48:15;;;;;;;;;;;;;;;-9.46;88.18;93092.66;1063146;55;20201;-82
2021/01/12 00:49:17;;;;;;;;;;;;;;;-9.52;88.05;93086.06;1065254;55;20174;-81
2021/01/12 00:50:18;;;;;;;;;;;;;;;-9.55;88.23;93088.44;1061028;56;20158;-82
2021/01/12 00:51:18;;;;;;;;;;;;;;;-9.39;87.95;93076.72;1061104;56;20173;-81
2021/01/12 00:52:19;;;;;;;;;;;;;;;-9.30;87.58;93074.97;1063179;55;20610;-82
2021/01/12 00:53:20;;;;;;;;;;;;;;;-9.31;87.46;93081.19;1061059;56;20299;-81
2021/01/12 00:54:23;;;;;;;;;;;;;;;-9.42;88.33;93072.13;1061008;56;20259;-82
2021/01/12 00:55:24;;;;;;;;;;;;;;;-9.39;88.20;93076.72;1063240;55;21205;-82
2021/01/12 00:56:24;;;;;;;;;;;;;;;-9.37;88.05;93079.78;1065648;55;20185;-82
2021/01/12 00:57:25;;;;;;;;;;;;;;;-9.38;88.18;93078.25;1062084;56;21032;-81
2021/01/12 00:58:25;;;;;;;;;;;;;;;-9.39;88.06;93074.16;1063185;55;20261;-82
2021/01/12 00:59:26;;;;;;;;;;;;;;;-9.41;88.13;93078.84;1067759;55;20173;-81
2021/01/12 01:00:26;;;;;;;;;;;;;;;-9.41;88.00;93076.25;1063122;55;20642;-83
2021/01/12 01:01:27;;;;;;;;;;;;;;;-9.30;87.60;93067.22;1061138;56;20166;-82
2021/01/12 01:02:27;;;;;;;;;;;;;;;-9.25;86.94;93061.91;1063171;55;20165;-81
2021/01/12 01:03:28;;;;;;;;;;;;;;;-9.37;86.99;93069.44;1061126;56;20563;-82
2021/01/12 01:04:28;;;;;;;;;;;;;;;-9.46;87.50;93059.00;1063109;55;20248;-81
2021/01/12 01:05:29;;;;;;;;;;;;;;;-9.39;87.59;93061.22;1065394;55;20180;-82
2021/01/12 01:06:31;;;;;;;;;;;;;;;-9.42;87.93;93070.31;1063163;55;20177;-81
2021/01/12 01:07:32;;;;;;;;;;;;;;;-9.40;87.78;93064.81;1063199;55;20149;-81
2021/01/12 01:08:33;;;;;;;;;;;;;;;-9.38;87.67;93057.56;1063268;55;20188;-82
2021/01/12 01:09:33;;;;;;;;;;;;;;;-9.34;87.62;93057.75;1063120;55;20266;-82
2021/01/12 01:10:36;;;;;;;;;;;;;;;-9.35;88.63;93049.19;1060974;56;20170;-82
2021/01/12 01:11:41;;;;;;;;;;;;;;;-9.31;87.85;93057.91;1063405;55;20173;-81
2021/01/12 01:12:41;;;;;;;;;;;;;;;-9.21;87.49;93049.16;1067547;55;20161;-81
2021/01/12 01:13:42;;;;;;;;;;;;;;;-9.31;87.72;93049.37;1063090;55;20290;-83
2021/01/12 01:14:42;;;;;;;;;;;;;;;-9.19;87.25;93054.78;1060975;56;20162;-80
2021/01/12 01:15:43;;;;;;;;;;;;;;;-9.13;87.04;93049.22;1065298;55;20206;-82
2021/01/12 01:16:44;;;;;;;;;;;;;;;-9.25;87.55;93056.75;1067757;55;20555;-81
2021/01/12 01:17:44;;;;;;;;;;;;;;;-9.29;87.73;93042.09;1067348;55;20642;-81
2021/01/12 01:18:45;;;;;;;;;;;;;;;-9.23;87.80;93049.44;1063020;55;20153;-82
2021/01/12 01:19:47;;;;;;;;;;;;;;;-9.16;87.32;93049.03;1063421;55;20162;-82
2021/01/12 01:20:48;;;;;;;;;;;;;;;-9.10;87.39;93057.44;1065313;55;20649;-83
2021/01/12 01:21:48;;;;;;;;;;;;;;;-9.06;86.95;93063.56;1065361;55;20169;-82
2021/01/12 01:22:50;;;;;;;;;;;;;;;-9.05;86.97;93072.84;1065359;55;20142;-82
2021/01/12 01:23:50;;;;;;;;;;;;;;;-9.11;86.99;93061.09;1065357;55;20153;-83
2021/01/12 01:24:51;;;;;;;;;;;;;;;-9.25;87.58;93067.09;1065320;55;20181;-81
2021/01/12 01:25:52;;;;;;;;;;;;;;;-9.16;87.43;93080.84;1060999;56;20658;-81
2021/01/12 01:26:56;;;;;;;;;;;;;;;-9.25;87.83;93072.28;1061093;56;20180;-81
2021/01/12 01:27:56;;;;;;;;;;;;;;;-9.25;88.33;93074.09;1059151;56;20189;-82
2021/01/12 01:28:57;;;;;;;;;;;;;;;-9.15;88.22;93068.69;1063252;55;20285;-84
2021/01/12 01:29:57;;;;;;;;;;;;;;;-9.21;88.01;93067.28;1065247;55;20687;-82
2021/01/12 01:30:59;;;;;;;;;;;;;;;-9.24;87.83;93063.44;1065313;55;20188;-82
2021/01/12 01:32:01;;;;;;;;;;;;;;;-9.21;88.00;93069.88;1067487;55;20157;-81
2021/01/12 01:33:03;;;;;;;;;;;;;;;-9.13;87.44;93064.75;1067426;55;20169;-82
2021/01/12 01:34:04;;;;;;;;;;;;;;;-9.24;87.07;93065.25;1065235;55;20546;-83
2021/01/12 01:35:05;;;;;;;;;;;;;;;-9.22;87.36;93066.50;1063104;55;20254;-83
2021/01/12 01:36:08;;;;;;;;;;;;;;;-9.26;87.50;93069.97;1063069;55;20263;-82
2021/01/12 01:37:09;;;;;;;;;;;;;;;-9.14;88.00;93070.19;1061002;56;20692;-82
2021/01/12 01:38:10;;;;;;;;;;;;;;;-9.13;87.33;93072.50;1063265;55;20636;-83
2021/01/12 01:39:11;;;;;;;;;;;;;;;-9.18;87.92;93077.03;1063052;55;20177;-83
2021/01/12 01:40:14;;;;;;;;;;;;;;;-9.03;87.20;93083.69;1063208;55;20556;-82
2021/01/12 01:41:14;;;;;;;;;;;;;;;-9.02;86.65;93091.16;1063073;55;20248;-82
2021/01/12 01:42:15;;;;;;;;;;;;;;;-9.17;86.91;93081.91;1063119;55;20234;-83
2021/01/12 01:43:20;;;;;;;;;;;;;;;-9.25;87.20;93084.44;1065383;55;20185;-82
2021/01/12 01:44:22;;;;;;;;;;;;;;;-9.23;87.61;93090.09;1065183;55;20196;-81
2021/01/12 01:45:24;;;;;;;;;;;;;;;-9.16;87.31;93100.81;1063038;55;20169;-82
2021/01/12 01:46:24;;;;;;;;;;;;;;;-9.10;86.76;93081.50;1065339;55;20157;-82
2021/01/12 01:47:24;;;;;;;;;;;;;;;-9.09;86.86;93084.84;1063121;55;20158;-83
2021/01/12 01:48:26;;;;;;;;;;;;;;;-9.06;86.93;93085.03;1063072;55;20150;-83
2021/01/12 01:49:29;;;;;;;;;;;;;;;-9.14;87.19;93083.16;1063125;55;20692;-83
2021/01/12 01:50:30;;;;;;;;;;;;;;;-9.25;87.61;93087.78;1063293;55;20161;-83
2021/01/12 01:51:31;;;;;;;;;;;;;;;-9.20;87.80;93085.09;1065207;55;20162;-82
2021/01/12 01:52:31;;;;;;;;;;;;;;;-9.11;87.79;93077.38;1065208;55;20169;-81
2021/01/12 01:53:35;;;;;;;;;;;;;;;-9.06;87.85;93084.28;1058847;56;20150;-82
2021/01/12 01:54:37;;;;;;;;;;;;;;;-9.10;88.09;93078.91;1061184;55;20670;-81
2021/01/12 01:55:39;;;;;;;;;;;;;;;-9.03;88.37;93076.69;1065413;55;20302;-82
2021/01/12 01:56:39;;;;;;;;;;;;;;;-8.96;88.09;93074.44;1063048;56;20185;-82
2021/01/12 01:57:41;;;;;;;;;;;;;;;-8.92;87.45;93072.78;1062957;55;20209;-82
2021/01/12 01:58:42;;;;;;;;;;;;;;;-8.90;87.24;93083.62;1065194;55;20154;-82
2021/01/12 01:59:42;;;;;;;;;;;;;;;-8.91;87.23;93078.72;1060953;56;20252;-81
2021/01/12 02:00:43;;;;;;;;;;;;;;;-8.88;87.84;93080.72;1060977;56;20189;-82
2021/01/12 02:01:44;;;;;;;;;;;;;;;-8.90;87.67;93069.91;1063112;55;20685;-81
2021/01/12 02:02:55;;;;;;;;;;;;;;;-8.89;87.90;93063.69;1065311;55;20230;-82
2021/01/12 02:03:55;;;;;;;;;;;;;;;-8.82;87.50;93076.19;1065272;55;20261;-81
2021/01/12 02:05:01;;;;;;;;;;;;;;;-8.85;87.86;93069.78;1061004;56;20728;-81
2021/01/12 02:06:08;;;;;;;;;;;;;;;-8.84;88.05;93070.56;1061303;55;20162;-81
2021/01/12 02:07:12;;;;;;;;;;;;;;;-8.78;87.71;93069.34;1061027;56;20686;-82
2021/01/12 02:08:16;;;;;;;;;;;;;;;-8.86;87.83;93067.50;1060914;56;20252;-82
2021/01/12 02:09:27;;;;;;;;;;;;;;;-8.81;88.19;93062.19;1061098;56;20177;-81
2021/01/12 02:10:27;;;;;;;;;;;;;;;-8.76;88.00;93064.66;1059133;56;20185;-82
2021/01/12 02:11:31;;;;;;;;;;;;;;;-8.81;88.13;93062.97;1058846;56;20166;-82
2021/01/12 02:12:37;;;;;;;;;;;;;;;-8.76;88.18;93062.06;1063266;55;20642;-82
2021/01/12 02:13:38;;;;;;;;;;;;;;;-8.75;87.86;93064.34;1060916;56;20170;-82
2021/01/12 02:14:40;;;;;;;;;;;;;;;-8.70;87.85;93060.88;1058930;56;20158;-82
2021/01/12 02:15:42;;;;;;;;;;;;;;;-8.77;88.08;93061.31;1060953;56;20259;-82
2021/01/12 02:16:44;;;;;;;;;;;;;;;-8.74;88.60;93055.53;1060846;56;20205;-82
2021/01/12 02:17:45;;;;;;;;;;;;;;;-8.75;87.99;93058.41;1061083;55;20181;-81
2021/01/12 02:18:47;;;;;;;;;;;;;;;-8.80;87.84;93061.12;1060795;56;20178;-82
2021/01/12 02:19:51;;;;;;;;;;;;;;;-8.74;88.89;93055.53;1058928;56;20206;-81
2021/01/12 02:20:52;;;;;;;;;;;;;;;-8.61;87.92;93059.09;1063211;55;20677;-81
2021/01/12 02:21:59;;;;;;;;;;;;;;;-8.54;87.42;93066.47;1063097;56;20202;-81
2021/01/12 02:23:07;;;;;;;;;;;;;;;-8.60;87.07;93063.22;1058984;56;20180;-81
2021/01/12 02:24:08;;;;;;;;;;;;;;;-8.72;87.63;93063.00;1061568;55;20162;-82
2021/01/12 02:25:09;;;;;;;;;;;;;;;-8.63;88.38;93062.00;1060929;56;20162;-83
2021/01/12 02:26:10;;;;;;;;;;;;;;;-8.75;87.88;93064.34;1058756;56;20225;-83
2021/01/12 02:27:10;;;;;;;;;;;;;;;-8.65;88.08;93051.19;1060910;56;20158;-82
2021/01/12 02:28:12;;;;;;;;;;;;;;;-8.75;88.01;93053.25;1063055;56;20154;-82
2021/01/12 02:29:13;;;;;;;;;;;;;;;-8.67;87.56;93057.69;1060939;56;20201;-82
2021/01/12 02:30:14;;;;;;;;;;;;;;;-8.65;87.46;93047.78;1060888;56;20544;-82
2021/01/12 02:31:17;;;;;;;;;;;;;;;-8.73;87.90;93044.13;1065222;55;20262;-82
2021/01/12 02:32:19;;;;;;;;;;;;;;;-8.63;87.44;93054.22;1060948;56;20213;-81
2021/01/12 02:33:20;;;;;;;;;;;;;;;-8.62;87.63;93040.19;1061012;56;20197;-81
2021/01/12 02:34:22;;;;;;;;;;;;;;;-8.58;87.32;93045.56;1060995;56;20247;-82
2021/01/12 02:35:24;;;;;;;;;;;;;;;-8.59;87.93;93036.25;1058774;56;20189;-83
2021/01/12 02:36:25;;;;;;;;;;;;;;;-8.71;88.43;93033.44;1058859;56;20189;-81
2021/01/12 02:37:26;;;;;;;;;;;;;;;-8.60;87.75;93039.91;1063028;56;20170;-81
2021/01/12 02:38:26;;;;;;;;;;;;;;;-8.61;87.87;93030.59;1065612;55;20168;-81
2021/01/12 02:39:27;;;;;;;;;;;;;;;-8.64;88.44;93037.16;1062978;56;20161;-82
2021/01/12 02:40:28;;;;;;;;;;;;;;;-8.68;88.55;93032.88;1058732;56;20186;-82
2021/01/12 02:41:29;;;;;;;;;;;;;;;-8.58;88.10;93027.41;1060902;56;20157;-82
2021/01/12 02:42:30;;;;;;;;;;;;;;;-8.59;88.12;93025.13;1063185;55;20158;-81
2021/01/12 02:43:30;;;;;;;;;;;;;;;-8.50;88.22;93026.69;1063097;56;20255;-81
2021/01/12 02:44:31;;;;;;;;;;;;;;;-8.49;87.68;93025.63;1063062;56;20185;-81
2021/01/12 02:45:31;;;;;;;;;;;;;;;-8.49;88.23;93022.28;1063019;56;20217;-81
2021/01/12 02:46:32;;;;;;;;;;;;;;;-8.51;88.23;93021.81;1060987;56;20189;-82
2021/01/12 02:47:33;;;;;;;;;;;;;;;-8.56;88.23;93011.56;1060860;56;20214;-82
2021/01/12 02:48:33;;;;;;;;;;;;;;;-8.60;88.47;93018.41;1060862;56;20192;-82
2021/01/12 02:49:34;;;;;;;;;;;;;;;-8.60;88.79;93014.00;1060844;56;20291;-82
2021/01/12 02:50:34;;;;;;;;;;;;;;;-8.61;88.90;93015.06;1060840;56;20635;-82
2021/01/12 02:51:35;;;;;;;;;;;;;;;-8.55;88.47;93013.13;1060850;56;20173;-84
2021/01/12 02:52:36;;;;;;;;;;;;;;;-8.52;88.58;93007.31;1060965;56;20251;-83
2021/01/12 02:53:36;;;;;;;;;;;;;;;-8.60;88.94;93011.41;1063119;56;20184;-82
2021/01/12 02:54:37;;;;;;;;;;;;;;;-8.42;88.76;93002.66;1065575;55;20161;-81
2021/01/12 02:55:38;;;;;;;;;;;;;;;-8.43;88.28;93008.91;1060865;56;20189;-82
2021/01/12 02:56:38;;;;;;;;;;;;;;;-8.39;87.71;93014.97;1058794;56;20150;-82
2021/01/12 02:57:39;;;;;;;;;;;;;;;-8.47;88.34;93015.75;1064780;55;20161;-82
2021/01/12 02:58:40;;;;;;;;;;;;;;;-8.52;88.39;93022.88;1063427;55;20222;-83
2021/01/12 02:59:40;;;;;;;;;;;;;;;-8.50;88.74;93012.97;1061037;56;20181;-83
2021/01/12 03:00:41;;;;;;;;;;;;;;;-8.50;88.86;93005.22;1063313;55;20150;-82
2021/01/12 03:01:41;;;;;;;;;;;;;;;-8.48;88.60;93010.84;1065482;55;20166;-80
2021/01/12 03:02:42;;;;;;;;;;;;;;;-8.51;88.83;93012.22;1067972;55;20262;-82
2021/01/12 03:03:43;;;;;;;;;;;;;;;-8.48;89.28;93013.44;1067926;55;20145;-83
2021/01/12 03:04:43;;;;;;;;;;;;;;;-8.41;88.72;93004.16;1063313;55;20678;-81
2021/01/12 03:05:43;;;;;;;;;;;;;;;-8.45;88.79;93007.66;1063468;55;20157;-82
2021/01/12 03:06:44;;;;;;;;;;;;;;;-8.27;88.22;92998.84;1067924;55;20638;-82
2021/01/12 03:07:44;;;;;;;;;;;;;;;-8.27;88.39;93006.63;1063249;55;20200;-82
2021/01/12 03:08:45;;;;;;;;;;;;;;;-8.31;88.32;93008.28;1061158;56;21068;-82
2021/01/12 03:09:46;;;;;;;;;;;;;;;-8.33;88.68;92996.69;1065603;55;20204;-81
2021/01/12 03:10:47;;;;;;;;;;;;;;;-8.23;88.65;92989.41;1063385;55;20150;-81
2021/01/12 03:11:51;;;;;;;;;;;;;;;-8.25;89.09;92981.16;1061182;55;20166;-81
2021/01/12 03:12:51;;;;;;;;;;;;;;;-8.19;88.73;92987.72;1065629;55;21087;-82
2021/01/12 03:13:52;;;;;;;;;;;;;;;-8.08;88.62;92985.59;1067648;55;20157;-84
2021/01/12 03:14:52;;;;;;;;;;;;;;;-8.07;88.10;92981.22;1063314;55;20150;-82
2021/01/12 03:15:53;;;;;;;;;;;;;;;-8.00;87.70;92979.66;1063325;55;20780;-82
2021/01/12 03:16:54;;;;;;;;;;;;;;;-8.03;87.62;92975.13;1063266;55;20578;-84
2021/01/12 03:17:54;;;;;;;;;;;;;;;-8.01;87.83;92982.56;1063257;55;20155;-81
2021/01/12 03:18:54;;;;;;;;;;;;;;;-8.05;87.94;92971.28;1063282;55;20149;-82
2021/01/12 03:19:55;;;;;;;;;;;;;;;-8.01;87.97;92975.56;1065450;55;20306;-83
2021/01/12 03:20:58;;;;;;;;;;;;;;;-8.06;88.51;92967.94;1065424;55;20694;-82
2021/01/12 03:21:59;;;;;;;;;;;;;;;-8.10;88.85;92979.97;1063507;55;20161;-80
2021/01/12 03:23:00;;;;;;;;;;;;;;;-8.11;88.91;92978.44;1065578;55;20184;-83
2021/01/12 03:24:01;;;;;;;;;;;;;;;-8.07;88.84;92974.19;1065412;55;20626;-82
2021/01/12 03:25:02;;;;;;;;;;;;;;;-8.07;89.16;92969.00;1063327;55;20169;-84
2021/01/12 03:26:02;;;;;;;;;;;;;;;-8.06;89.21;92974.94;1065481;55;20162;-82
2021/01/12 03:27:03;;;;;;;;;;;;;;;-8.02;89.55;92965.50;1063168;55;20177;-81
2021/01/12 03:28:06;;;;;;;;;;;;;;;-8.01;89.34;92967.03;1063322;55;20188;-82
2021/01/12 03:29:07;;;;;;;;;;;;;;;-7.88;89.39;92960.94;1065509;55;20184;-83
2021/01/12 03:30:07;;;;;;;;;;;;;;;-7.93;89.73;92964.44;1061189;56;20154;-83
2021/01/12 03:31:08;;;;;;;;;;;;;;;-7.80;90.24;92967.19;1058972;56;20276;-82
2021/01/12 03:32:08;;;;;;;;;;;;;;;-7.80;89.85;92969.78;1061143;56;20162;-81
2021/01/12 03:33:09;;;;;;;;;;;;;;;-7.74;89.22;92964.13;1065487;55;20153;-82
2021/01/12 03:34:09;;;;;;;;;;;;;;;-7.77;89.24;92958.78;1065584;55;20696;-79
2021/01/12 03:35:11;;;;;;;;;;;;;;;-7.73;89.08;92954.53;1061208;56;20642;-83
2021/01/12 03:36:13;;;;;;;;;;;;;;;-7.75;88.95;92962.62;1061150;56;20165;-82
2021/01/12 03:37:13;;;;;;;;;;;;;;;-7.71;89.13;92953.16;1061123;56;20147;-82
2021/01/12 03:38:13;;;;;;;;;;;;;;;-7.76;88.92;92950.72;1063314;55;20231;-83
2021/01/12 03:39:14;;;;;;;;;;;;;;;-7.73;88.60;92952.69;1065313;55;20162;-82
2021/01/12 03:40:14;;;;;;;;;;;;;;;-7.73;88.60;92951.91;1065447;55;20251;-81
2021/01/12 03:41:15;;;;;;;;;;;;;;;-7.71;88.76;92952.41;1063204;55;20161;-81
2021/01/12 03:42:16;;;;;;;;;;;;;;;-7.67;88.51;92943.69;1063340;55;20653;-82
2021/01/12 03:43:16;;;;;;;;;;;;;;;-7.66;88.66;92939.25;1063354;55;20150;-83
2021/01/12 03:44:17;;;;;;;;;;;;;;;-7.64;88.68;92934.53;1061177;56;20166;-84
2021/01/12 03:45:17;;;;;;;;;;;;;;;-7.68;88.88;92939.59;1061121;56;20162;-82
2021/01/12 03:46:19;;;;;;;;;;;;;;;-7.59;89.25;92936.97;1063325;55;20158;-83
2021/01/12 03:47:19;;;;;;;;;;;;;;;-7.66;88.67;92936.66;1065477;55;20158;-83
2021/01/12 03:48:20;;;;;;;;;;;;;;;-7.58;88.70;92930.72;1061183;56;20299;-83
2021/01/12 03:49:21;;;;;;;;;;;;;;;-7.61;88.06;92931.31;1061206;55;20166;-82
2021/01/12 03:50:24;;;;;;;;;;;;;;;-7.64;88.41;92930.13;1061067;56;20162;-83
2021/01/12 03:51:25;;;;;;;;;;;;;;;-7.56;88.52;92930.41;1061233;55;20181;-82
2021/01/12 03:52:26;;;;;;;;;;;;;;;-7.58;88.71;92932.56;1065394;55;20188;-81
2021/01/12 03:53:26;;;;;;;;;;;;;;;-7.60;88.50;92925.81;1065420;55;20186;-82
2021/01/12 03:54:26;;;;;;;;;;;;;;;-7.51;88.51;92922.44;1061196;56;20295;-82
2021/01/12 03:55:27;;;;;;;;;;;;;;;-7.57;87.96;92926.28;1061238;56;20150;-82
2021/01/12 03:56:27;;;;;;;;;;;;;;;-7.56;88.52;92915.59;1063282;55;20181;-82
2021/01/12 03:57:28;;;;;;;;;;;;;;;-7.61;88.42;92926.88;1065330;55;20157;-82
2021/01/12 03:58:28;;;;;;;;;;;;;;;-7.66;89.42;92921.09;1065409;55;20149;-84
2021/01/12 03:59:29;;;;;;;;;;;;;;;-7.58;88.79;92922.16;1065448;55;20180;-81
2021/01/12 04:00:32;;;;;;;;;;;;;;;-7.60;88.56;92923.22;1063184;55;20588;-82
2021/01/12 04:01:33;;;;;;;;;;;;;;;-7.60;88.94;92920.63;1061152;56;20177;-82
2021/01/12 04:02:33;;;;;;;;;;;;;;;-7.46;88.70;92919.69;1061157;56;20158;-82
2021/01/12 04:03:34;;;;;;;;;;;;;;;-7.49;88.59;92915.91;1063333;55;20165;-82
2021/01/12 04:04:35;;;;;;;;;;;;;;;-7.50;89.11;92913.63;1061080;56;20185;-82
2021/01/12 04:05:37;;;;;;;;;;;;;;;-7.47;89.50;92907.78;1061083;56;20624;-81
2021/01/12 04:06:40;;;;;;;;;;;;;;;-7.47;89.13;92911.16;1065594;55;20257;-81
2021/01/12 04:07:40;;;;;;;;;;;;;;;-7.44;89.32;92904.59;1067833;55;20177;-83
2021/01/12 04:08:42;;;;;;;;;;;;;;;-7.40;89.09;92905.50;1063287;55;20158;-81
2021/01/12 04:09:42;;;;;;;;;;;;;;;-7.36;88.86;92906.41;1061141;55;20731;-82
2021/01/12 04:10:42;;;;;;;;;;;;;;;-7.39;89.00;92901.81;1061091;56;20181;-83
2021/01/12 04:11:44;;;;;;;;;;;;;;;-7.33;89.22;92905.00;1063232;55;20146;-82
2021/01/12 04:12:45;;;;;;;;;;;;;;;-7.37;89.25;92897.09;1063279;55;20157;-81
2021/01/12 04:13:45;;;;;;;;;;;;;;;-7.38;88.86;92900.75;1065467;55;20169;-82
2021/01/12 04:14:46;;;;;;;;;;;;;;;-7.39;89.31;92899.22;1063124;55;20178;-83
2021/01/12 04:15:46;;;;;;;;;;;;;;;-7.26;88.93;92902.72;1063314;55;20598;-83
2021/01/12 04:16:47;;;;;;;;;;;;;;;-7.18;88.79;92896.75;1065469;55;20297;-83
2021/01/12 04:17:47;;;;;;;;;;;;;;;-7.22;88.76;92899.19;1063332;55;20676;-81
2021/01/12 04:18:47;;;;;;;;;;;;;;;-7.28;88.89;92899.69;1063165;55;20678;-83
2021/01/12 04:19:48;;;;;;;;;;;;;;;-7.25;89.13;92892.00;1067615;55;20195;-86
2021/01/12 04:20:48;;;;;;;;;;;;;;;-7.19;89.12;92887.44;1067979;55;20173;-81
2021/01/12 04:21:50;;;;;;;;;;;;;;;-7.23;89.35;92896.91;1063292;55;20295;-82
2021/01/12 04:22:51;;;;;;;;;;;;;;;-7.30;89.43;92894.03;1063275;55;20571;-83
2021/01/12 04:23:51;;;;;;;;;;;;;;;-7.29;89.93;92888.50;1065381;55;20246;-82
2021/01/12 04:24:52;;;;;;;;;;;;;;;-7.15;90.05;92893.53;1065389;55;21086;-82
2021/01/12 04:25:53;;;;;;;;;;;;;;;-7.10;89.97;92877.78;1063177;55;20639;-82
2021/01/12 04:26:54;;;;;;;;;;;;;;;-7.04;89.79;92888.75;1063264;55;20188;-83
2021/01/12 04:27:54;;;;;;;;;;;;;;;-7.16;90.07;92886.78;1065378;55;20631;-83
2021/01/12 04:28:55;;;;;;;;;;;;;;;-6.94;90.33;92893.59;1063243;55;20170;-82
2021/01/12 04:29:55;;;;;;;;;;;;;;;-7.10;90.20;92885.56;1063215;55;20255;-82
2021/01/12 04:30:56;;;;;;;;;;;;;;;-7.13;90.26;92881.00;1061049;56;20162;-82
2021/01/12 04:31:56;;;;;;;;;;;;;;;-7.08;90.26;92874.84;1059017;56;20163;-83
2021/01/12 04:32:57;;;;;;;;;;;;;;;-7.03;89.76;92872.09;1061161;56;20163;-83
2021/01/12 04:33:57;;;;;;;;;;;;;;;-7.06;90.13;92873.50;1063254;55;20244;-82
2021/01/12 04:34:58;;;;;;;;;;;;;;;-7.01;89.92;92873.31;1063310;55;20169;-82
2021/01/12 04:35:58;;;;;;;;;;;;;;;-7.06;89.60;92873.50;1065455;55;20196;-84
2021/01/12 04:36:59;;;;;;;;;;;;;;;-7.01;89.61;92875.16;1063209;55;20180;-82
2021/01/12 04:37:59;;;;;;;;;;;;;;;-7.06;89.91;92860.50;1063266;55;20181;-83
2021/01/12 04:39:00;;;;;;;;;;;;;;;-6.95;89.61;92873.87;1065477;55;20177;-84
2021/01/12 04:40:00;;;;;;;;;;;;;;;-7.01;89.56;92870.72;1061082;56;20169;-81
2021/01/12 04:41:01;;;;;;;;;;;;;;;-6.98;89.66;92864.91;1063343;55;20169;-82
2021/01/12 04:42:01;;;;;;;;;;;;;;;-6.99;89.62;92858.16;1065376;55;20150;-86
2021/01/12 04:43:02;;;;;;;;;;;;;;;-6.99;89.85;92870.38;1061198;56;20150;-82
2021/01/12 04:44:03;;;;;;;;;;;;;;;-6.99;90.06;92857.41;1061090;56;20764;-82
2021/01/12 04:45:04;;;;;;;;;;;;;;;-7.02;89.90;92861.41;1063176;55;20579;-83
2021/01/12 04:46:05;;;;;;;;;;;;;;;-7.04;89.95;92868.72;1061086;56;20698;-84
2021/01/12 04:47:06;;;;;;;;;;;;;;;-7.04;89.93;92870.56;1061094;56;20159;-83
2021/01/12 04:48:07;;;;;;;;;;;;;;;-7.03;90.40;92864.28;1061154;56;20193;-82
2021/01/12 04:49:08;;;;;;;;;;;;;;;-7.00;90.23;92866.28;1063278;55;20161;-83
2021/01/12 04:50:08;;;;;;;;;;;;;;;-7.00;90.08;92863.69;1067898;55;20146;-82
2021/01/12 04:51:10;;;;;;;;;;;;;;;-6.92;89.99;92855.09;1065464;55;21153;-82
2021/01/12 04:52:10;;;;;;;;;;;;;;;-6.94;89.68;92863.19;1063263;55;20189;-82
2021/01/12 04:53:11;;;;;;;;;;;;;;;-6.95;89.84;92860.91;1061026;56;20169;-82
2021/01/12 04:54:12;;;;;;;;;;;;;;;-6.92;89.94;92861.03;1061090;56;20155;-82
2021/01/12 04:55:13;;;;;;;;;;;;;;;-6.96;90.18;92860.16;1063328;55;20255;-81
2021/01/12 04:56:17;;;;;;;;;;;;;;;-6.93;90.07;92859.53;1063172;55;21169;-83
2021/01/12 04:57:17;;;;;;;;;;;;;;;-6.91;90.17;92861.81;1063335;55;20685;-83
2021/01/12 04:58:18;;;;;;;;;;;;;;;-6.89;90.31;92862.25;1065388;55;20153;-82
2021/01/12 04:59:23;;;;;;;;;;;;;;;-6.89;89.96;92860.44;1063147;55;20171;-82
2021/01/12 05:00:32;;;;;;;;;;;;;;;-6.75;89.69;92860.22;1065572;55;20149;-82
2021/01/12 05:01:33;;;;;;;;;;;;;;;-6.79;89.65;92861.91;1065383;55;20220;-83
2021/01/12 05:02:33;;;;;;;;;;;;;;;-6.80;89.52;92867.41;1061073;56;20154;-82
2021/01/12 05:03:34;;;;;;;;;;;;;;;-6.90;90.31;92856.28;1058874;56;20182;-83
2021/01/12 05:04:35;;;;;;;;;;;;;;;-6.82;90.47;92865.13;1058901;56;20170;-81
2021/01/12 05:05:37;;;;;;;;;;;;;;;-6.79;90.24;92859.31;1061196;56;21103;-82
2021/01/12 05:06:38;;;;;;;;;;;;;;;-6.79;90.28;92855.94;1063281;55;20248;-82
2021/01/12 05:07:39;;;;;;;;;;;;;;;-6.83;90.19;92855.81;1063257;55;20224;-87
2021/01/12 05:08:40;;;;;;;;;;;;;;;-6.80;90.47;92847.41;1063234;55;20158;-85
2021/01/12 05:09:41;;;;;;;;;;;;;;;-6.76;90.38;92863.88;1063264;55;20166;-83
2021/01/12 05:10:43;;;;;;;;;;;;;;;-6.71;90.34;92862.94;1065343;55;20169;-84
2021/01/12 05:11:44;;;;;;;;;;;;;;;-6.74;90.45;92843.53;1061065;56;20311;-83
2021/01/12 05:12:45;;;;;;;;;;;;;;;-6.72;90.71;92849.16;1058975;56;20189;-82
2021/01/12 05:13:47;;;;;;;;;;;;;;;-6.73;90.47;92845.06;1059147;56;20173;-84
2021/01/12 05:14:48;;;;;;;;;;;;;;;-6.73;90.57;92842.44;1061204;55;20176;-81
2021/01/12 05:15:52;;;;;;;;;;;;;;;-6.71;90.95;92839.56;1063335;55;20170;-82
2021/01/12 05:16:54;;;;;;;;;;;;;;;-6.69;90.62;92845.19;1065327;55;20161;-84
2021/01/12 05:17:59;;;;;;;;;;;;;;;-6.69;90.79;92840.00;1063227;55;20178;-82
2021/01/12 05:19:03;;;;;;;;;;;;;;;-6.61;90.68;92841.78;1061155;56;20189;-82